createdAt,value
2023-03-29T00:00:08.198Z,8.81
2023-03-29T00:02:38.843Z,8.78
2023-03-29T00:05:06.746Z,8.77
2023-03-29T00:07:33.712Z,8.76
2023-03-29T00:10:01.679Z,8.79
2023-03-29T00:12:28.788Z,8.83
2023-03-29T00:14:55.462Z,8.86
2023-03-29T00:17:22.094Z,8.89
2023-03-29T00:19:48.955Z,8.93
2023-03-29T00:22:16.707Z,8.98
2023-03-29T00:24:43.335Z,9.01
2023-03-29T00:27:09.985Z,9.05
2023-03-29T00:29:36.914Z,9.06
2023-03-29T00:32:03.649Z,9.08
2023-03-29T00:34:31.169Z,9.11
2023-03-29T00:36:58.869Z,9.12
2023-03-29T00:39:28.162Z,9.12
2023-03-29T00:41:56.135Z,9.15
2023-03-29T00:45:00.731Z,9.18
2023-03-29T00:47:32.608Z,9.21
2023-03-29T00:50:06.106Z,9.22
2023-03-29T00:52:34.722Z,9.26
2023-03-29T00:55:06.190Z,9.28
2023-03-29T00:57:34.178Z,9.28
2023-03-29T01:00:04.976Z,9.28
2023-03-29T01:02:34.723Z,9.29
2023-03-29T01:05:08.557Z,9.29
2023-03-29T01:07:51.236Z,9.31
2023-03-29T01:10:27.607Z,9.31
2023-03-29T01:13:04.310Z,9.31
2023-03-29T01:15:32.042Z,9.28
2023-03-29T01:18:02.124Z,9.26
2023-03-29T01:20:46.229Z,9.21
2023-03-29T01:23:32.445Z,9.18
2023-03-29T01:26:36.337Z,9.15
2023-03-29T01:29:29.469Z,9.10
2023-03-29T01:32:03.971Z,9.05
2023-03-29T01:34:35.048Z,9.03
2023-03-29T01:37:15.911Z,9.02
2023-03-29T01:39:42.857Z,9.00
2023-03-29T01:42:22.012Z,8.99
2023-03-29T01:45:08.003Z,9.00
2023-03-29T01:47:47.515Z,9.00
2023-03-29T01:50:31.975Z,9.02
2023-03-29T01:53:08.242Z,9.05
2023-03-29T01:55:39.068Z,9.07
2023-03-29T01:58:08.537Z,9.09
2023-03-29T02:00:38.558Z,9.09
2023-03-29T02:03:08.982Z,9.12
2023-03-29T02:05:38.699Z,9.15
2023-03-29T02:08:09.239Z,9.18
2023-03-29T02:10:36.897Z,9.17
2023-03-29T02:13:04.818Z,9.19
2023-03-29T02:15:33.157Z,9.20
2023-03-29T02:17:59.940Z,9.20
2023-03-29T02:20:30.195Z,9.19
2023-03-29T02:23:18.172Z,9.17
2023-03-29T02:25:46.709Z,9.11
2023-03-29T02:28:14.566Z,9.07
2023-03-29T02:30:54.708Z,9.04
2023-03-29T02:33:34.672Z,9.01
2023-03-29T02:36:13.628Z,8.98
2023-03-29T02:38:41.535Z,8.92
2023-03-29T02:41:09.336Z,8.91
2023-03-29T02:43:38.268Z,8.89
2023-03-29T02:46:07.866Z,8.88
2023-03-29T02:48:37.792Z,8.85
2023-03-29T02:51:13.638Z,8.81
2023-03-29T02:53:45.201Z,8.76
2023-03-29T02:56:11.900Z,8.71
2023-03-29T02:58:38.738Z,8.66
2023-03-29T03:01:07.124Z,8.60
2023-03-29T03:03:34.112Z,8.53
2023-03-29T03:06:01.890Z,8.44
2023-03-29T03:08:29.937Z,8.37
2023-03-29T03:10:56.813Z,8.31
2023-03-29T03:13:24.706Z,8.28
2023-03-29T03:15:51.515Z,8.28
2023-03-29T03:18:18.342Z,8.30
2023-03-29T03:20:55.109Z,8.35
2023-03-29T03:23:21.874Z,8.37
2023-03-29T03:25:49.327Z,8.39
2023-03-29T03:28:16.017Z,8.40
2023-03-29T03:30:43.025Z,8.41
2023-03-29T03:33:25.257Z,8.44
2023-03-29T03:36:11.301Z,8.48
2023-03-29T03:38:38.719Z,8.51
2023-03-29T03:41:07.230Z,8.54
2023-03-29T03:43:34.809Z,8.55
2023-03-29T03:46:02.332Z,8.55
2023-03-29T03:48:30.408Z,8.54
2023-03-29T03:51:07.574Z,8.52
2023-03-29T03:53:35.104Z,8.49
2023-03-29T03:56:14.726Z,8.45
2023-03-29T03:59:19.969Z,8.43
2023-03-29T04:02:16.449Z,8.41
2023-03-29T04:04:44.068Z,8.38
2023-03-29T04:07:18.151Z,8.37
2023-03-29T04:10:06.357Z,8.37
2023-03-29T04:12:44.234Z,8.39
2023-03-29T04:15:12.306Z,8.41
2023-03-29T04:17:44.426Z,8.42
2023-03-29T04:20:20.835Z,8.44
2023-03-29T04:22:47.588Z,8.47
2023-03-29T04:25:14.364Z,8.49
2023-03-29T04:27:47.347Z,8.51
2023-03-29T04:30:32.859Z,8.54
2023-03-29T04:33:13.662Z,8.56
2023-03-29T04:35:42.578Z,8.58
2023-03-29T04:38:12.813Z,8.59
2023-03-29T04:40:39.844Z,8.57
2023-03-29T04:43:23.727Z,8.56
2023-03-29T04:45:58.829Z,8.56
2023-03-29T04:48:43.748Z,8.55
2023-03-29T04:51:11.670Z,8.54
2023-03-29T04:53:39.508Z,8.55
2023-03-29T04:56:07.168Z,8.57
2023-03-29T04:59:09.840Z,8.62
2023-03-29T05:01:36.839Z,8.67
2023-03-29T05:04:05.000Z,8.70
2023-03-29T05:06:37.753Z,8.74
2023-03-29T05:09:07.160Z,8.78
2023-03-29T05:11:45.040Z,8.82
2023-03-29T05:14:12.517Z,8.84
2023-03-29T05:16:40.849Z,8.87
2023-03-29T05:19:09.394Z,8.87
2023-03-29T05:21:38.677Z,8.89
2023-03-29T05:24:07.569Z,8.91
2023-03-29T05:26:51.887Z,8.93
2023-03-29T05:29:18.936Z,8.93
2023-03-29T05:31:49.863Z,8.94
2023-03-29T05:34:16.954Z,8.94
2023-03-29T05:36:46.737Z,8.93
2023-03-29T05:39:14.198Z,8.93
2023-03-29T05:41:41.924Z,8.98
2023-03-29T05:44:19.379Z,9.04
2023-03-29T05:46:48.993Z,9.10
2023-03-29T05:49:16.584Z,9.17
2023-03-29T05:51:57.118Z,9.24
2023-03-29T05:54:25.116Z,9.30
2023-03-29T05:56:52.651Z,9.36
2023-03-29T05:59:19.898Z,9.43
2023-03-29T06:01:47.661Z,9.51
2023-03-29T06:04:19.093Z,9.61
2023-03-29T06:06:55.106Z,9.71
2023-03-29T06:09:22.884Z,9.73
2023-03-29T06:11:59.005Z,9.72
2023-03-29T06:14:32.734Z,9.76
2023-03-29T06:17:10.752Z,9.84
2023-03-29T06:19:37.625Z,9.94
2023-03-29T06:22:04.349Z,10.07
2023-03-29T06:24:32.554Z,10.22
2023-03-29T06:27:03.916Z,10.39
2023-03-29T06:29:31.051Z,10.54
2023-03-29T06:31:58.118Z,10.71
2023-03-29T06:35:00.411Z,10.90
2023-03-29T06:37:32.657Z,11.04
2023-03-29T06:40:13.568Z,11.16
2023-03-29T06:42:46.002Z,11.24
2023-03-29T06:45:36.919Z,11.31
2023-03-29T06:48:08.439Z,11.39
2023-03-29T06:50:36.056Z,11.49
2023-03-29T06:53:15.715Z,11.59
2023-03-29T06:55:43.873Z,11.67
2023-03-29T06:58:22.829Z,11.76
2023-03-29T07:00:49.868Z,11.82
2023-03-29T07:03:30.586Z,11.87
2023-03-29T07:06:04.293Z,11.94
2023-03-29T07:08:32.378Z,12.03
2023-03-29T07:11:03.597Z,12.11
2023-03-29T07:13:49.026Z,12.22
2023-03-29T07:16:19.315Z,12.33
2023-03-29T07:18:57.728Z,12.45
2023-03-29T07:21:43.185Z,12.57
2023-03-29T07:24:10.213Z,12.68
2023-03-29T07:26:37.241Z,12.77
2023-03-29T07:29:04.834Z,12.86
2023-03-29T07:31:35.069Z,12.94
2023-03-29T07:34:20.662Z,13.06
2023-03-29T07:36:47.879Z,13.17
2023-03-29T07:39:15.804Z,13.24
2023-03-29T07:41:46.220Z,13.23
2023-03-29T07:44:14.029Z,13.21
2023-03-29T07:46:42.926Z,13.19
2023-03-29T07:49:10.038Z,13.22
2023-03-29T07:51:38.308Z,13.23
2023-03-29T07:54:10.761Z,13.30
2023-03-29T07:56:47.852Z,13.43
2023-03-29T07:59:37.212Z,13.57
2023-03-29T08:02:11.018Z,13.73
2023-03-29T08:04:40.369Z,13.92
2023-03-29T08:07:20.115Z,14.10
2023-03-29T08:10:09.825Z,14.31
2023-03-29T08:12:52.678Z,14.49
2023-03-29T08:15:22.907Z,14.64
2023-03-29T08:17:49.924Z,14.74
2023-03-29T08:20:17.055Z,14.83
2023-03-29T08:22:45.668Z,14.90
2023-03-29T08:25:35.978Z,14.99
2023-03-29T08:28:03.581Z,15.08
2023-03-29T08:30:38.725Z,15.16
2023-03-29T08:33:05.857Z,15.22
2023-03-29T08:35:33.371Z,15.32
2023-03-29T08:38:10.787Z,15.40
2023-03-29T08:40:37.779Z,15.46
2023-03-29T08:43:39.899Z,15.57
2023-03-29T08:46:35.476Z,15.70
2023-03-29T08:49:28.622Z,15.83
2023-03-29T08:52:00.625Z,15.94
2023-03-29T08:54:41.432Z,16.01
2023-03-29T08:57:20.014Z,16.09
2023-03-29T08:59:53.650Z,16.10
2023-03-29T09:02:28.241Z,16.10
2023-03-29T09:05:26.901Z,16.16
2023-03-29T09:08:16.513Z,16.29
2023-03-29T09:11:21.731Z,16.36
2023-03-29T09:14:19.418Z,16.34
2023-03-29T09:16:52.619Z,16.29
2023-03-29T09:19:26.443Z,16.37
2023-03-29T09:22:16.139Z,16.51
2023-03-29T09:25:04.654Z,16.65
2023-03-29T09:27:36.788Z,16.79
2023-03-29T09:30:26.333Z,16.90
2023-03-29T09:33:26.109Z,16.98
2023-03-29T09:36:18.110Z,17.10
2023-03-29T09:38:51.028Z,17.19
2023-03-29T09:41:32.004Z,17.21
2023-03-29T09:44:08.222Z,17.24
2023-03-29T09:46:44.126Z,17.31
2023-03-29T09:49:27.494Z,17.39
2023-03-29T09:51:58.200Z,17.47
2023-03-29T09:54:25.066Z,17.59
2023-03-29T09:57:29.142Z,17.73
2023-03-29T09:59:57.446Z,17.83
2023-03-29T10:02:24.207Z,17.87
2023-03-29T10:05:03.892Z,17.95
2023-03-29T10:07:41.445Z,18.05
2023-03-29T10:10:10.624Z,18.11
2023-03-29T10:12:37.490Z,18.18
2023-03-29T10:15:06.211Z,18.27
2023-03-29T10:17:40.705Z,18.33
2023-03-29T10:20:13.932Z,18.41
2023-03-29T10:22:48.355Z,18.49
2023-03-29T10:25:18.253Z,18.55
2023-03-29T10:27:47.802Z,18.58
2023-03-29T10:30:22.558Z,18.59
2023-03-29T10:32:56.941Z,18.66
2023-03-29T10:35:34.711Z,18.71
2023-03-29T10:38:05.505Z,18.76
2023-03-29T10:40:34.801Z,18.85
2023-03-29T10:43:32.373Z,18.91
2023-03-29T10:46:13.487Z,19.00
2023-03-29T10:48:47.698Z,19.03
2023-03-29T10:51:16.903Z,19.07
2023-03-29T10:53:43.677Z,19.04
2023-03-29T10:56:39.096Z,18.98
2023-03-29T10:59:27.750Z,18.84
2023-03-29T11:02:13.445Z,18.81
2023-03-29T11:05:06.034Z,18.80
2023-03-29T11:07:48.704Z,18.82
2023-03-29T11:10:41.874Z,18.79
2023-03-29T11:13:08.553Z,18.77
2023-03-29T11:15:54.480Z,18.85
2023-03-29T11:18:44.550Z,18.98
2023-03-29T11:21:25.380Z,19.05
2023-03-29T11:24:10.865Z,18.98
2023-03-29T11:27:03.622Z,18.90
2023-03-29T11:30:08.196Z,18.86
2023-03-29T11:33:16.743Z,18.73
2023-03-29T11:36:02.465Z,18.55
2023-03-29T11:38:39.138Z,18.42
2023-03-29T11:41:19.919Z,18.37
2023-03-29T11:44:24.966Z,18.37
2023-03-29T11:47:07.521Z,18.34
2023-03-29T11:49:41.703Z,18.27
2023-03-29T11:52:30.962Z,18.21
2023-03-29T11:55:17.026Z,18.32
2023-03-29T11:57:43.650Z,18.47
2023-03-29T12:00:22.184Z,18.58
2023-03-29T12:02:55.324Z,18.77
2023-03-29T12:05:36.820Z,18.91
2023-03-29T12:08:19.166Z,19.02
2023-03-29T12:10:56.779Z,19.11
2023-03-29T12:13:33.960Z,19.13
2023-03-29T12:16:08.841Z,19.03
2023-03-29T12:18:43.061Z,18.92
2023-03-29T12:21:14.371Z,19.00
2023-03-29T12:23:43.425Z,19.11
2023-03-29T12:26:25.610Z,19.27
2023-03-29T12:29:18.720Z,19.43
2023-03-29T12:32:07.409Z,19.54
2023-03-29T12:35:07.440Z,19.53
2023-03-29T12:38:02.752Z,19.51
2023-03-29T12:41:19.336Z,19.43
2023-03-29T12:44:04.360Z,19.29
2023-03-29T12:46:38.122Z,19.28
2023-03-29T12:49:14.008Z,19.32
2023-03-29T12:51:43.460Z,19.40
2023-03-29T12:54:20.221Z,19.44
2023-03-29T12:56:55.428Z,19.43
2023-03-29T12:59:34.283Z,19.41
2023-03-29T13:02:09.922Z,19.29
2023-03-29T13:04:42.624Z,19.09
2023-03-29T13:07:30.078Z,19.06
2023-03-29T13:10:08.998Z,19.09
2023-03-29T13:12:35.691Z,19.07
2023-03-29T13:15:05.985Z,19.16
2023-03-29T13:17:45.703Z,19.25
2023-03-29T13:20:33.730Z,19.31
2023-03-29T13:23:03.090Z,19.36
2023-03-29T13:25:45.212Z,19.41
2023-03-29T13:28:27.944Z,19.40
2023-03-29T13:31:24.005Z,19.34
2023-03-29T13:34:04.260Z,19.31
2023-03-29T13:36:54.893Z,19.28
2023-03-29T13:39:25.155Z,19.19
2023-03-29T13:42:05.358Z,19.14
2023-03-29T13:44:45.626Z,19.13
2023-03-29T13:47:27.489Z,19.12
2023-03-29T13:49:58.572Z,19.13
2023-03-29T13:52:38.872Z,19.12
2023-03-29T13:55:20.030Z,19.10
2023-03-29T13:58:25.594Z,19.10
2023-03-29T14:01:17.794Z,19.09
2023-03-29T14:03:48.518Z,19.06
2023-03-29T14:06:26.793Z,19.01
2023-03-29T14:08:53.941Z,19.01
2023-03-29T14:11:26.806Z,19.02
2023-03-29T14:13:59.027Z,19.03
2023-03-29T14:16:35.561Z,19.01
2023-03-29T14:19:13.473Z,19.00
2023-03-29T14:21:41.816Z,19.01
2023-03-29T14:24:12.967Z,18.97
2023-03-29T14:26:44.848Z,18.95
2023-03-29T14:29:12.185Z,18.90
2023-03-29T14:31:41.434Z,18.91
2023-03-29T14:34:16.689Z,18.96
2023-03-29T14:36:54.221Z,19.01
2023-03-29T14:39:23.422Z,19.03
2023-03-29T14:41:55.424Z,19.01
2023-03-29T14:44:24.885Z,18.94
2023-03-29T14:46:52.386Z,18.87
2023-03-29T14:49:23.085Z,18.82
2023-03-29T14:51:51.838Z,18.81
2023-03-29T14:54:27.650Z,18.82
2023-03-29T14:56:55.229Z,18.80
2023-03-29T14:59:41.392Z,18.75
2023-03-29T15:02:26.979Z,18.72
2023-03-29T15:04:59.456Z,18.68
2023-03-29T15:07:27.407Z,18.63
2023-03-29T15:09:55.857Z,18.60
2023-03-29T15:12:23.709Z,18.60
2023-03-29T15:14:52.467Z,18.61
2023-03-29T15:17:49.594Z,18.61
2023-03-29T15:20:35.115Z,18.61
2023-03-29T15:23:08.648Z,18.64
2023-03-29T15:25:38.701Z,18.60
2023-03-29T15:28:07.611Z,18.56
2023-03-29T15:30:39.537Z,18.53
2023-03-29T15:33:15.379Z,18.51
2023-03-29T15:35:50.330Z,18.52
2023-03-29T15:38:25.398Z,18.51
2023-03-29T15:41:00.909Z,18.53
2023-03-29T15:43:27.967Z,18.51
2023-03-29T15:45:54.910Z,18.48
2023-03-29T15:48:27.540Z,18.46
2023-03-29T15:50:54.995Z,18.44
2023-03-29T15:53:23.674Z,18.43
2023-03-29T15:55:53.358Z,18.43
2023-03-29T15:58:25.559Z,18.43
2023-03-29T16:00:59.262Z,18.43
2023-03-29T16:03:27.458Z,18.41
2023-03-29T16:05:56.977Z,18.38
2023-03-29T16:08:25.071Z,18.34
2023-03-29T16:10:52.171Z,18.33
2023-03-29T16:13:18.937Z,18.31
2023-03-29T16:15:46.554Z,18.28
2023-03-29T16:18:13.806Z,18.23
2023-03-29T16:20:41.707Z,18.16
2023-03-29T16:23:09.583Z,18.10
2023-03-29T16:25:39.931Z,18.04
2023-03-29T16:28:09.160Z,17.99
2023-03-29T16:30:38.430Z,17.95
2023-03-29T16:33:08.443Z,17.89
2023-03-29T16:35:42.522Z,17.84
2023-03-29T16:38:09.554Z,17.81
2023-03-29T16:40:36.949Z,17.77
2023-03-29T16:43:05.260Z,17.73
2023-03-29T16:45:32.023Z,17.68
2023-03-29T16:47:58.963Z,17.62
2023-03-29T16:50:27.129Z,17.56
2023-03-29T16:52:54.175Z,17.52
2023-03-29T16:55:20.930Z,17.50
2023-03-29T16:57:48.984Z,17.47
2023-03-29T17:00:19.659Z,17.42
2023-03-29T17:02:49.912Z,17.37
2023-03-29T17:05:18.622Z,17.32
2023-03-29T17:07:46.190Z,17.27
2023-03-29T17:10:13.617Z,17.22
2023-03-29T17:12:40.661Z,17.16
2023-03-29T17:15:08.096Z,17.11
2023-03-29T17:17:35.305Z,17.05
2023-03-29T17:20:02.110Z,17.01
2023-03-29T17:22:28.757Z,16.97
2023-03-29T17:24:55.492Z,16.93
2023-03-29T17:27:22.141Z,16.89
2023-03-29T17:29:48.756Z,16.86
2023-03-29T17:32:15.764Z,16.82
2023-03-29T17:34:42.558Z,16.79
2023-03-29T17:37:09.674Z,16.74
2023-03-29T17:39:37.779Z,16.69
2023-03-29T17:42:05.342Z,16.65
2023-03-29T17:44:33.473Z,16.60
2023-03-29T17:47:03.158Z,16.56
2023-03-29T17:49:30.085Z,16.53
2023-03-29T17:51:58.067Z,16.49
2023-03-29T17:54:24.732Z,16.46
2023-03-29T17:56:51.470Z,16.41
2023-03-29T17:59:18.108Z,16.36
2023-03-29T18:01:44.817Z,16.30
2023-03-29T18:04:11.847Z,16.23
2023-03-29T18:06:38.594Z,16.15
2023-03-29T18:09:05.735Z,16.03
2023-03-29T18:11:32.453Z,15.94
2023-03-29T18:14:00.388Z,15.85
2023-03-29T18:16:27.438Z,15.76
2023-03-29T18:18:54.273Z,15.69
2023-03-29T18:21:21.062Z,15.59
2023-03-29T18:23:49.274Z,15.50
2023-03-29T18:26:17.453Z,15.39
2023-03-29T18:28:48.593Z,15.28
2023-03-29T18:31:15.720Z,15.18
2023-03-29T18:33:42.482Z,15.09
2023-03-29T18:36:13.318Z,15.01
2023-03-29T18:38:43.261Z,14.92
2023-03-29T18:41:12.587Z,14.82
2023-03-29T18:43:40.728Z,14.75
2023-03-29T18:46:08.143Z,14.68
2023-03-29T18:48:44.391Z,14.62
2023-03-29T18:51:11.668Z,14.54
2023-03-29T18:53:41.606Z,14.49
2023-03-29T18:56:08.612Z,14.43
2023-03-29T18:58:36.611Z,14.37
2023-03-29T19:01:06.332Z,14.32
2023-03-29T19:03:35.004Z,14.28
2023-03-29T19:06:02.524Z,14.28
2023-03-29T19:08:30.156Z,14.27
2023-03-29T19:11:01.906Z,14.26
2023-03-29T19:13:28.707Z,14.24
2023-03-29T19:15:55.649Z,14.24
2023-03-29T19:18:23.353Z,14.23
2023-03-29T19:21:01.389Z,14.20
2023-03-29T19:23:39.162Z,14.16
2023-03-29T19:26:07.346Z,14.13
2023-03-29T19:28:35.295Z,14.09
2023-03-29T19:31:04.358Z,14.05
2023-03-29T19:33:32.847Z,14.01
2023-03-29T19:36:00.960Z,13.99
2023-03-29T19:38:31.914Z,13.94
2023-03-29T19:40:58.782Z,13.89
2023-03-29T19:43:25.575Z,13.85
2023-03-29T19:45:52.335Z,13.85
2023-03-29T19:48:23.855Z,13.85
2023-03-29T19:50:52.095Z,13.86
2023-03-29T19:53:21.346Z,13.86
2023-03-29T19:55:49.556Z,13.84
2023-03-29T19:58:17.721Z,13.82
2023-03-29T20:00:51.931Z,13.78
2023-03-29T20:03:19.599Z,13.76
2023-03-29T20:05:48.757Z,13.73
2023-03-29T20:08:17.572Z,13.72
2023-03-29T20:10:44.365Z,13.72
2023-03-29T20:13:13.013Z,13.71
2023-03-29T20:15:46.774Z,13.69
2023-03-29T20:18:15.422Z,13.66
2023-03-29T20:20:44.737Z,13.63
2023-03-29T20:23:12.359Z,13.61
2023-03-29T20:25:41.046Z,13.59
2023-03-29T20:28:07.771Z,13.56
2023-03-29T20:30:35.292Z,13.53
2023-03-29T20:33:02.048Z,13.49
2023-03-29T20:35:30.199Z,13.46
2023-03-29T20:37:58.519Z,13.44
2023-03-29T20:40:25.196Z,13.41
2023-03-29T20:42:54.375Z,13.38
2023-03-29T20:45:21.632Z,13.35
2023-03-29T20:47:57.950Z,13.32
2023-03-29T20:50:28.488Z,13.29
2023-03-29T20:52:56.675Z,13.26
2023-03-29T20:55:24.421Z,13.24
2023-03-29T20:57:57.992Z,13.22
2023-03-29T21:00:27.447Z,13.20
2023-03-29T21:03:00.705Z,13.18
2023-03-29T21:05:29.447Z,13.16
2023-03-29T21:07:57.121Z,13.15
2023-03-29T21:10:25.305Z,13.15
2023-03-29T21:12:54.430Z,13.14
2023-03-29T21:15:21.093Z,13.14
2023-03-29T21:17:47.922Z,13.12
2023-03-29T21:20:15.552Z,13.11
2023-03-29T21:22:43.193Z,13.09
2023-03-29T21:25:12.657Z,13.06
2023-03-29T21:27:39.381Z,13.05
2023-03-29T21:30:08.015Z,13.03
2023-03-29T21:32:35.521Z,13.00
2023-03-29T21:35:02.204Z,12.96
2023-03-29T21:37:28.845Z,12.90
2023-03-29T21:39:55.802Z,12.82
2023-03-29T21:42:22.409Z,12.77
2023-03-29T21:44:49.069Z,12.74
2023-03-29T21:47:15.844Z,12.73
2023-03-29T21:49:42.563Z,12.73
2023-03-29T21:52:09.299Z,12.72
2023-03-29T21:54:36.252Z,12.72
2023-03-29T21:57:02.898Z,12.73
2023-03-29T21:59:29.528Z,12.74
2023-03-29T22:01:56.223Z,12.76
2023-03-29T22:04:35.258Z,12.76
2023-03-29T22:07:02.861Z,12.76
2023-03-29T22:09:29.834Z,12.77
2023-03-29T22:11:57.086Z,12.76
2023-03-29T22:14:23.851Z,12.71
2023-03-29T22:16:50.526Z,12.67
2023-03-29T22:19:17.139Z,12.65
2023-03-29T22:21:44.242Z,12.65
2023-03-29T22:24:10.926Z,12.66
2023-03-29T22:26:37.604Z,12.63
2023-03-29T22:29:04.386Z,12.60
2023-03-29T22:31:32.687Z,12.59
2023-03-29T22:34:00.667Z,12.56
2023-03-29T22:36:30.002Z,12.54
2023-03-29T22:38:57.151Z,12.49
2023-03-29T22:41:26.210Z,12.47
2023-03-29T22:43:55.321Z,12.46
2023-03-29T22:46:23.028Z,12.46
2023-03-29T22:48:50.121Z,12.43
2023-03-29T22:51:16.920Z,12.43
2023-03-29T22:53:43.956Z,12.41
2023-03-29T22:56:10.713Z,12.41
2023-03-29T22:58:37.837Z,12.41
2023-03-29T23:01:06.687Z,12.41
2023-03-29T23:03:34.177Z,12.43
2023-03-29T23:06:04.490Z,12.44
2023-03-29T23:08:33.319Z,12.45
2023-03-29T23:11:00.705Z,12.45
2023-03-29T23:13:29.242Z,12.47
2023-03-29T23:15:59.114Z,12.45
2023-03-29T23:18:28.735Z,12.44
2023-03-29T23:20:57.205Z,12.43
2023-03-29T23:23:25.371Z,12.43
2023-03-29T23:25:53.961Z,12.44
2023-03-29T23:28:24.990Z,12.45
2023-03-29T23:31:01.075Z,12.41
2023-03-29T23:33:33.348Z,12.37
2023-03-29T23:36:03.789Z,12.32
2023-03-29T23:38:32.051Z,12.26
2023-03-29T23:41:02.266Z,12.23
2023-03-29T23:43:34.338Z,12.22
2023-03-29T23:46:10.681Z,12.22
2023-03-29T23:48:38.046Z,12.22
2023-03-29T23:51:05.482Z,12.22
2023-03-29T23:53:32.808Z,12.18
2023-03-29T23:56:01.514Z,12.18
2023-03-29T23:58:29.582Z,12.18
